Time;durP1;ratioP1;P1;durP2;ratioP2;P2;SDS_P1;SDS_P2;PMS_P1;PMS_P2;Temp;Humidity;BMP_temperature;BMP_pressure;BME280_temperature;BME280_humidity;BME280_pressure;Samples;Min_cycle;Max_cycle;Signal;HPM_P1;HPM_P2
2021/04/23 00:00:56;;;;;;;4.05;2.00;;;17.50;42.80;;;;;;6217516;28;20105;-77
2021/04/23 00:04:05;;;;;;;3.55;2.30;;;17.40;42.70;;;;;;6184691;28;20130;-78
2021/04/23 00:07:07;;;;;;;3.60;2.28;;;17.30;42.60;;;;;;6201006;28;20035;-77
2021/04/23 00:10:14;;;;;;;4.45;2.38;;;17.30;42.60;;;;;;6201823;28;20570;-78
2021/04/23 00:13:15;;;;;;;3.35;2.28;;;17.30;42.90;;;;;;6217020;28;20407;-78
2021/04/23 00:16:16;;;;;;;3.75;1.95;;;17.30;43.20;;;;;;6186275;28;20088;-77
2021/04/23 00:19:23;;;;;;;4.55;1.80;;;17.30;43.40;;;;;;6187958;28;20022;-77
2021/04/23 00:22:23;;;;;;;2.90;1.88;;;17.20;43.80;;;;;;6207783;28;20030;-78
2021/04/23 00:25:26;;;;;;;3.70;1.98;;;17.20;43.90;;;;;;6207599;28;20053;-78
2021/04/23 00:28:27;;;;;;;3.28;2.05;;;17.10;43.90;;;;;;6223711;28;20026;-78
2021/04/23 00:31:28;;;;;;;7.85;2.83;;;17.10;44.10;;;;;;6192168;28;20026;-78
2021/04/23 00:34:29;;;;;;;3.88;2.00;;;17.00;44.70;;;;;;6207531;28;20107;-78
2021/04/23 00:37:30;;;;;;;6.07;2.40;;;17.00;44.30;;;;;;6178450;28;20481;-78
2021/04/23 00:40:36;;;;;;;4.50;2.30;;;16.90;44.50;;;;;;6189510;28;20421;-78
2021/04/23 00:43:41;;;;;;;3.80;2.10;;;16.90;44.60;;;;;;6206992;28;20026;-79
2021/04/23 00:46:42;;;;;;;4.65;2.53;;;16.80;44.70;;;;;;6195979;28;20076;-83
2021/04/23 00:49:43;;;;;;;3.45;2.15;;;16.70;44.80;;;;;;6199227;28;20026;-79
2021/04/23 00:52:44;;;;;;;8.18;1.90;;;16.70;45.00;;;;;;6212216;28;20026;-79
2021/04/23 00:55:55;;;;;;;4.43;2.22;;;16.60;45.30;;;;;;6195645;28;20109;-80
2021/04/23 00:58:57;;;;;;;4.25;2.00;;;16.50;45.80;;;;;;6175997;28;20468;-77
2021/04/23 01:02:04;;;;;;;2.67;1.88;;;16.50;45.90;;;;;;6211893;28;20045;-77
2021/04/23 01:05:06;;;;;;;3.40;2.40;;;16.50;45.80;;;;;;6199148;28;20070;-79
2021/04/23 01:08:08;;;;;;;4.55;2.10;;;16.50;46.00;;;;;;6211703;28;20471;-78
2021/04/23 01:11:10;;;;;;;5.82;2.17;;;16.40;46.00;;;;;;6195968;28;20026;-78
2021/04/23 01:14:11;;;;;;;3.10;2.10;;;16.40;46.00;;;;;;6205985;28;20034;-78
2021/04/23 01:17:12;;;;;;;4.95;2.42;;;16.40;46.20;;;;;;6192268;28;20041;-78
2021/04/23 01:20:14;;;;;;;4.10;2.40;;;16.40;46.50;;;;;;6214429;28;20034;-78
2021/04/23 01:23:15;;;;;;;3.30;2.25;;;16.40;46.50;;;;;;6179771;28;20038;-77
2021/04/23 01:26:20;;;;;;;4.05;2.45;;;16.30;46.30;;;;;;6191394;28;20038;-78
2021/04/23 01:29:25;;;;;;;4.85;2.63;;;16.30;46.40;;;;;;6203337;28;20088;-78
2021/04/23 01:32:26;;;;;;;2.88;2.22;;;16.30;46.50;;;;;;6212133;28;20025;-78
2021/04/23 01:35:27;;;;;;;7.15;2.47;;;16.20;46.60;;;;;;6214552;28;20511;-78
2021/04/23 01:38:28;;;;;;;4.05;2.30;;;16.20;46.70;;;;;;6222164;28;20026;-78
2021/04/23 01:41:29;;;;;;;3.28;2.22;;;16.20;46.90;;;;;;6211024;28;20034;-78
2021/04/23 01:44:31;;;;;;;4.50;2.55;;;16.10;47.00;;;;;;6228186;28;20030;-77
2021/04/23 01:47:32;;;;;;;6.43;2.88;;;16.10;47.20;;;;;;6192849;28;20445;-78
2021/04/23 01:50:33;;;;;;;4.32;2.40;;;16.10;47.30;;;;;;6223224;28;20353;-78
2021/04/23 01:53:35;;;;;;;4.07;2.60;;;16.10;47.40;;;;;;6224862;28;20030;-78
2021/04/23 01:56:38;;;;;;;6.05;2.35;;;16.00;47.40;;;;;;6211401;28;20120;-78
2021/04/23 01:59:40;;;;;;;5.22;2.10;;;16.00;47.50;;;;;;6199965;28;20039;-78
2021/04/23 02:02:42;;;;;;;4.15;2.22;;;16.00;47.60;;;;;;6203864;28;20040;-77
2021/04/23 02:05:43;;;;;;;3.65;2.50;;;16.00;47.50;;;;;;6187540;28;20066;-78
2021/04/23 02:08:44;;;;;;;3.78;2.33;;;16.00;47.60;;;;;;6187171;28;20471;-78
2021/04/23 02:11:47;;;;;;;3.17;2.60;;;16.00;47.60;;;;;;6191553;28;20026;-78
2021/04/23 02:14:48;;;;;;;4.85;2.40;;;16.00;47.50;;;;;;6206415;28;20096;-77
2021/04/23 02:17:49;;;;;;;3.47;1.98;;;16.00;47.40;;;;;;6203323;28;20030;-78
2021/04/23 02:20:51;;;;;;;2.97;2.13;;;15.90;47.30;;;;;;6207995;28;20038;-77
2021/04/23 02:23:52;;;;;;;3.28;2.15;;;15.90;47.30;;;;;;6211323;28;20076;-77
2021/04/23 02:26:53;;;;;;;2.75;2.05;;;15.90;47.50;;;;;;6211238;28;20034;-78
2021/04/23 02:29:54;;;;;;;7.30;2.38;;;15.90;47.60;;;;;;6202950;28;20050;-78
2021/04/23 02:32:56;;;;;;;3.13;2.08;;;15.80;47.70;;;;;;6186921;28;20153;-78
2021/04/23 02:35:58;;;;;;;3.35;2.50;;;15.80;47.70;;;;;;6205396;28;20030;-78
2021/04/23 02:38:59;;;;;;;4.15;2.38;;;15.80;47.70;;;;;;6205287;28;20096;-79
2021/04/23 02:42:00;;;;;;;4.70;2.40;;;15.70;47.90;;;;;;6187248;28;20101;-78
2021/04/23 02:45:09;;;;;;;4.57;2.42;;;15.70;47.90;;;;;;6207938;28;20034;-78
2021/04/23 02:48:11;;;;;;;6.38;2.17;;;15.70;48.20;;;;;;6229388;28;20022;-78
2021/04/23 02:51:15;;;;;;;5.07;2.40;;;15.60;48.30;;;;;;6203254;28;20381;-77
2021/04/23 02:54:18;;;;;;;4.47;2.28;;;15.50;48.40;;;;;;6209598;28;20128;-79
2021/04/23 02:57:19;;;;;;;3.72;2.28;;;15.50;48.40;;;;;;6186327;28;20045;-78
2021/04/23 03:00:22;;;;;;;3.92;2.25;;;15.50;48.60;;;;;;6201116;28;20034;-78
2021/04/23 03:03:23;;;;;;;6.35;2.55;;;15.50;48.70;;;;;;6204125;28;20056;-78
2021/04/23 03:06:24;;;;;;;6.25;2.63;;;15.40;48.70;;;;;;6186443;28;20062;-78
2021/04/23 03:09:25;;;;;;;5.40;2.33;;;15.40;48.80;;;;;;6215241;28;20030;-78
2021/04/23 03:12:26;;;;;;;3.28;2.30;;;15.30;48.80;;;;;;6225397;28;20452;-78
2021/04/23 03:15:28;;;;;;;5.10;2.47;;;15.30;49.00;;;;;;6216921;28;20038;-78
2021/04/23 03:18:31;;;;;;;4.90;2.53;;;15.30;49.00;;;;;;6208174;28;20544;-78
2021/04/23 03:21:32;;;;;;;2.60;2.10;;;15.30;49.00;;;;;;6215544;28;20030;-78
2021/04/23 03:24:33;;;;;;;4.57;2.33;;;15.30;49.10;;;;;;6208534;28;20034;-78
2021/04/23 03:27:35;;;;;;;3.60;2.45;;;15.30;49.10;;;;;;6225292;28;20030;-78
2021/04/23 03:30:40;;;;;;;5.80;2.38;;;15.30;49.10;;;;;;6203932;28;20476;-79
2021/04/23 03:33:41;;;;;;;7.75;2.95;;;15.30;49.20;;;;;;6185282;28;20503;-79
2021/04/23 03:36:43;;;;;;;5.50;2.55;;;15.30;49.20;;;;;;6201768;28;20453;-78
2021/04/23 03:39:44;;;;;;;3.55;2.42;;;15.30;49.60;;;;;;6201495;28;20022;-79
2021/04/23 03:42:44;;;;;;;4.90;2.55;;;15.20;49.70;;;;;;6202570;28;20034;-79
2021/04/23 03:45:45;;;;;;;4.78;2.50;;;15.20;49.70;;;;;;6185199;28;20038;-78
2021/04/23 03:48:47;;;;;;;4.47;2.08;;;15.10;49.70;;;;;;6201198;28;20454;-78
2021/04/23 03:51:48;;;;;;;4.18;2.38;;;15.10;49.80;;;;;;6207473;28;20442;-78
2021/04/23 03:54:52;;;;;;;4.15;2.75;;;15.10;49.80;;;;;;6201063;28;20037;-78
2021/04/23 03:57:53;;;;;;;2.92;2.22;;;15.00;49.70;;;;;;6209612;28;20429;-78
2021/04/23 04:00:58;;;;;;;3.50;2.42;;;15.00;49.80;;;;;;6184446;28;20026;-78
2021/04/23 04:03:59;;;;;;;7.68;2.70;;;15.00;49.90;;;;;;6200944;28;20062;-78
2021/04/23 04:07:00;;;;;;;4.47;2.47;;;14.90;50.00;;;;;;6184586;28;20026;-79
2021/04/23 04:10:01;;;;;;;6.18;2.60;;;14.90;50.00;;;;;;6200735;28;20549;-78
2021/04/23 04:13:04;;;;;;;6.82;2.63;;;14.90;50.00;;;;;;6184634;28;20354;-78
2021/04/23 04:16:05;;;;;;;2.95;2.40;;;14.90;50.10;;;;;;6201178;28;20092;-78
2021/04/23 04:19:07;;;;;;;3.92;2.53;;;14.80;49.90;;;;;;6205452;28;20029;-77
2021/04/23 04:22:08;;;;;;;4.38;2.67;;;14.80;50.00;;;;;;6219868;28;20072;-77
2021/04/23 04:25:19;;;;;;;9.48;2.53;;;14.80;50.10;;;;;;6224037;28;20890;-78
2021/04/23 04:28:20;;;;;;;4.07;2.53;;;14.80;50.20;;;;;;6223863;28;20025;-78
2021/04/23 04:31:21;;;;;;;4.60;2.47;;;14.80;50.20;;;;;;6192064;28;20040;-79
2021/04/23 04:34:21;;;;;;;4.45;2.42;;;14.80;50.20;;;;;;6193826;28;20113;-78
2021/04/23 04:37:22;;;;;;;4.93;2.55;;;14.70;50.20;;;;;;6189775;28;20052;-78
2021/04/23 04:40:26;;;;;;;2.72;2.15;;;14.70;50.20;;;;;;6201624;28;20088;-77
2021/04/23 04:43:27;;;;;;;3.67;2.30;;;14.70;50.30;;;;;;6186804;28;20030;-79
2021/04/23 04:46:28;;;;;;;4.20;2.47;;;14.70;50.30;;;;;;6185432;28;20023;-78
2021/04/23 04:49:29;;;;;;;3.88;2.70;;;14.70;50.50;;;;;;6184288;28;20108;-78
2021/04/23 04:52:30;;;;;;;5.40;2.42;;;14.70;50.70;;;;;;6176718;28;20030;-78
2021/04/23 04:55:36;;;;;;;4.35;2.53;;;14.70;50.90;;;;;;6184474;28;20368;-78
2021/04/23 04:58:41;;;;;;;7.30;2.85;;;14.70;51.20;;;;;;6181894;28;20041;-78
2021/04/23 05:01:42;;;;;;;5.90;3.15;;;14.70;51.40;;;;;;6203471;28;20083;-79
2021/04/23 05:04:43;;;;;;;4.00;2.97;;;14.60;51.60;;;;;;6207365;28;20034;-78
2021/04/23 05:07:44;;;;;;;6.10;2.75;;;14.60;51.80;;;;;;6190720;28;20069;-79
2021/04/23 05:10:45;;;;;;;6.63;3.03;;;14.60;52.00;;;;;;6191125;28;20527;-79
2021/04/23 05:13:46;;;;;;;7.75;3.17;;;14.50;52.10;;;;;;6191546;28;20049;-77
2021/04/23 05:16:47;;;;;;;4.80;2.85;;;14.50;52.20;;;;;;6190995;28;20040;-77
2021/04/23 05:19:48;;;;;;;3.90;2.83;;;14.50;52.00;;;;;;6224408;28;20022;-78
2021/04/23 05:22:49;;;;;;;8.45;3.13;;;14.50;51.90;;;;;;6189125;28;20441;-78
2021/04/23 05:25:50;;;;;;;6.50;3.05;;;14.50;51.80;;;;;;6171574;28;20041;-78
2021/04/23 05:28:51;;;;;;;7.00;3.17;;;14.50;51.80;;;;;;6188477;28;20061;-80
2021/04/23 05:31:52;;;;;;;8.80;3.45;;;14.50;52.30;;;;;;6205435;28;20062;-78
2021/04/23 05:34:53;;;;;;;4.85;2.90;;;14.50;51.70;;;;;;6188322;28;20085;-77
2021/04/23 05:37:54;;;;;;;6.45;3.13;;;14.50;51.70;;;;;;6203078;28;20113;-77
2021/04/23 05:40:55;;;;;;;8.77;3.20;;;14.50;51.70;;;;;;6228701;28;20472;-78
2021/04/23 05:43:56;;;;;;;36.35;3.80;;;14.50;51.60;;;;;;6201953;28;20030;-79
2021/04/23 05:46:57;;;;;;;14.05;3.20;;;14.60;51.80;;;;;;6210804;28;20030;-78
2021/04/23 05:49:58;;;;;;;5.88;3.33;;;14.60;51.80;;;;;;6211509;28;20461;-78
2021/04/23 05:52:59;;;;;;;8.95;2.92;;;14.70;51.70;;;;;;6181474;28;20060;-78
2021/04/23 05:56:00;;;;;;;9.73;3.00;;;14.70;51.40;;;;;;6211035;28;20034;-78
2021/04/23 05:59:01;;;;;;;5.82;3.33;;;14.80;51.10;;;;;;6191276;28;20424;-78
2021/04/23 06:02:08;;;;;;;6.25;3.25;;;14.80;50.90;;;;;;6187880;28;20031;-79
2021/04/23 06:05:10;;;;;;;4.68;3.17;;;14.80;50.60;;;;;;6172100;28;20069;-80
2021/04/23 06:08:12;;;;;;;5.40;3.13;;;14.80;50.50;;;;;;6187070;28;20369;-79
2021/04/23 06:11:18;;;;;;;5.57;3.40;;;14.80;50.30;;;;;;6187118;28;20339;-79
2021/04/23 06:14:22;;;;;;;7.60;3.53;;;14.80;50.20;;;;;;6186742;28;20069;-79
2021/04/23 06:17:23;;;;;;;7.93;3.88;;;14.80;50.20;;;;;;6170927;28;20034;-79
2021/04/23 06:20:29;;;;;;;6.55;3.55;;;14.80;50.10;;;;;;6187796;28;20038;-79
2021/04/23 06:23:31;;;;;;;6.78;3.63;;;14.90;50.00;;;;;;6210391;28;20052;-78
2021/04/23 06:26:32;;;;;;;6.05;3.83;;;15.00;50.00;;;;;;6208974;28;20092;-79
2021/04/23 06:29:33;;;;;;;10.80;4.07;;;15.00;49.90;;;;;;6178080;28;20108;-78
2021/04/23 06:32:34;;;;;;;12.85;3.80;;;15.00;49.80;;;;;;6209593;28;20034;-78
2021/04/23 06:35:37;;;;;;;10.57;4.10;;;15.10;49.80;;;;;;6220807;28;20034;-78
2021/04/23 06:38:38;;;;;;;12.10;4.38;;;15.20;49.80;;;;;;6196165;28;20088;-77
2021/04/23 06:41:49;;;;;;;11.50;3.97;;;15.30;49.90;;;;;;6209801;28;20368;-78
2021/04/23 06:44:59;;;;;;;12.63;4.47;;;15.30;50.10;;;;;;6210215;28;20072;-80
2021/04/23 06:48:14;;;;;;;8.35;3.95;;;15.50;49.80;;;;;;6225234;28;20042;-79
2021/04/23 06:51:27;;;;;;;6.35;4.20;;;15.60;49.60;;;;;;6224048;28;20022;-80
2021/04/23 06:54:31;;;;;;;19.45;4.43;;;15.70;49.60;;;;;;6214641;28;20517;-79
2021/04/23 06:58:01;;;;;;;16.40;4.50;;;15.70;49.50;;;;;;6212563;28;20047;-79
2021/04/23 07:01:22;;;;;;;9.20;4.03;;;15.80;49.40;;;;;;6177796;28;20456;-79
2021/04/23 07:08:53;;;;;;;7.47;4.05;;;16.10;48.70;;;;;;6105998;29;20127;-79
2021/04/23 07:12:23;;;;;;;8.85;3.47;;;16.20;48.40;;;;;;6074058;29;20040;-80
2021/04/23 07:15:54;;;;;;;10.07;3.78;;;16.30;48.20;;;;;;6075169;29;20067;-80
2021/04/23 07:19:21;;;;;;;9.75;4.40;;;16.40;48.00;;;;;;6043841;29;20165;-81
2021/04/23 07:22:42;;;;;;;15.52;4.10;;;16.40;47.80;;;;;;6053259;29;20485;-80
2021/04/23 07:25:43;;;;;;;21.77;4.32;;;16.50;47.60;;;;;;6042330;29;20196;-79
2021/04/23 07:28:44;;;;;;;10.60;4.13;;;16.80;47.50;;;;;;6057579;29;20077;-78
2021/04/23 07:32:15;;;;;;;12.75;4.15;;;16.70;47.00;;;;;;6058560;29;20144;-78
2021/04/23 07:35:30;;;;;;;10.18;4.03;;;16.80;46.70;;;;;;6057284;29;20486;-79
2021/04/23 07:38:33;;;;;;;10.13;4.47;;;16.80;46.20;;;;;;6058985;29;20045;-79
2021/04/23 07:41:34;;;;;;;13.02;4.55;;;17.10;45.80;;;;;;6070913;29;20051;-78
2021/04/23 07:44:35;;;;;;;9.05;4.03;;;17.30;45.40;;;;;;6127641;28;20138;-79
2021/04/23 07:47:43;;;;;;;10.65;4.63;;;17.40;44.70;;;;;;6174353;28;20237;-79
2021/04/23 07:50:48;;;;;;;41.03;6.45;;;17.50;44.20;;;;;;6158891;28;20058;-81
2021/04/23 07:54:14;;;;;;;10.15;4.97;;;17.60;44.10;;;;;;6167342;28;20445;-80
2021/04/23 07:57:15;;;;;;;9.63;4.55;;;17.80;43.60;;;;;;6227947;28;20045;-78
2021/04/23 08:00:19;;;;;;;12.02;4.85;;;17.90;43.60;;;;;;6203080;28;20034;-77
2021/04/23 08:03:19;;;;;;;21.52;5.32;;;18.10;43.40;;;;;;6185202;28;20042;-78
2021/04/23 08:06:20;;;;;;;11.35;5.72;;;18.20;43.00;;;;;;6208285;28;20479;-78
2021/04/23 08:09:22;;;;;;;10.38;5.00;;;18.30;42.70;;;;;;6207060;28;20129;-79
2021/04/23 08:12:23;;;;;;;10.77;5.15;;;18.40;42.60;;;;;;6213648;28;20114;-78
2021/04/23 08:15:24;;;;;;;8.95;5.18;;;18.50;42.00;;;;;;6215924;28;20492;-79
2021/04/23 08:18:25;;;;;;;10.82;5.15;;;18.70;41.80;;;;;;6223777;28;20030;-79
2021/04/23 08:21:27;;;;;;;50.88;7.45;;;18.90;41.60;;;;;;6224288;28;20041;-79
2021/04/23 08:24:28;;;;;;;16.98;5.53;;;19.00;41.30;;;;;;6223188;28;20026;-80
2021/04/23 08:27:30;;;;;;;10.88;5.65;;;19.10;40.90;;;;;;6223803;28;20033;-78
2021/04/23 08:30:31;;;;;;;13.20;5.60;;;19.20;40.70;;;;;;6207149;28;20041;-77
2021/04/23 08:33:32;;;;;;;11.95;5.93;;;19.30;40.50;;;;;;6224806;28;20062;-79
2021/04/23 08:36:34;;;;;;;13.95;5.63;;;19.40;40.40;;;;;;6208301;28;20125;-79
2021/04/23 08:39:40;;;;;;;17.10;5.75;;;19.60;40.30;;;;;;6200196;28;20030;-79
2021/04/23 08:42:42;;;;;;;10.88;5.53;;;19.70;39.90;;;;;;6200860;28;20041;-78
2021/04/23 08:45:43;;;;;;;11.52;6.15;;;19.90;39.80;;;;;;6198504;28;20042;-77
2021/04/23 08:48:44;;;;;;;12.40;5.88;;;19.90;39.30;;;;;;6200580;28;20042;-80
2021/04/23 08:51:46;;;;;;;12.88;7.10;;;20.00;39.40;;;;;;6184701;28;20027;-79
2021/04/23 08:54:47;;;;;;;20.75;8.63;;;20.00;39.10;;;;;;6185652;28;20038;-79
2021/04/23 08:57:48;;;;;;;12.02;6.13;;;20.00;38.90;;;;;;6204304;28;20049;-78
2021/04/23 09:00:49;;;;;;;11.02;5.50;;;20.10;38.90;;;;;;6206175;28;20037;-78
2021/04/23 09:03:50;;;;;;;17.17;7.28;;;20.20;38.90;;;;;;6201686;28;20515;-79
2021/04/23 09:07:03;;;;;;;11.93;5.93;;;20.20;38.40;;;;;;6219379;28;20042;-79
2021/04/23 09:10:13;;;;;;;12.77;6.30;;;20.30;38.50;;;;;;6208204;28;20026;-79
2021/04/23 09:13:16;;;;;;;9.20;5.00;;;20.40;38.40;;;;;;6188639;28;20089;-80
2021/04/23 09:17:01;;;;;;;15.73;8.52;;;20.50;38.00;;;;;;6188794;28;20036;-78
2021/04/23 09:20:03;;;;;;;16.10;7.50;;;20.50;37.70;;;;;;6227151;28;20060;-80
2021/04/23 09:23:16;;;;;;;25.75;8.27;;;20.60;37.50;;;;;;6219314;28;20092;-78
2021/04/23 09:26:34;;;;;;;7.47;5.05;;;20.60;37.60;;;;;;6216506;28;20034;-79
2021/04/23 09:29:43;;;;;;;13.00;5.00;;;20.80;37.30;;;;;;6227643;28;20057;-79
2021/04/23 09:32:44;;;;;;;;;;;20.90;36.90;;;;;;6214350;28;20034;-77
2021/04/23 09:35:45;;;;;;;13.13;5.53;;;21.00;36.50;;;;;;6228883;28;19913;-80
2021/04/23 09:38:46;;;;;;;6.53;3.97;;;21.10;36.40;;;;;;6227482;28;20036;-79
2021/04/23 09:42:08;;;;;;;6.68;4.10;;;21.10;36.20;;;;;;6227552;28;20041;-79
2021/04/23 09:45:09;;;;;;;6.38;3.38;;;21.20;35.70;;;;;;6225464;28;20110;-79
2021/04/23 09:48:21;;;;;;;10.82;4.00;;;21.30;35.30;;;;;;6194396;28;20357;-80
2021/04/23 09:51:22;;;;;;;7.90;4.95;;;21.40;34.90;;;;;;6207462;28;20056;-80
2021/04/23 09:54:25;;;;;;;9.18;4.30;;;21.50;34.70;;;;;;6227874;28;20030;-80
2021/04/23 09:57:33;;;;;;;12.57;4.57;;;21.60;34.80;;;;;;6225413;28;20033;-80
2021/04/23 10:00:36;;;;;;;;;;;21.60;34.80;;;;;;6204090;28;20500;-80
2021/04/23 10:03:37;;;;;;;5.75;3.35;;;21.70;34.80;;;;;;6203290;28;19910;-78
2021/04/23 10:06:38;;;;;;;5.10;2.42;;;21.80;34.10;;;;;;6203455;28;20065;-80
2021/04/23 10:10:06;;;;;;;6.20;2.97;;;21.90;34.00;;;;;;6202051;28;20038;-78
2021/04/23 10:13:09;;;;;;;4.22;2.58;;;21.90;33.70;;;;;;6208789;28;20036;-78
2021/04/23 10:16:10;;;;;;;4.60;3.05;;;22.00;33.40;;;;;;6210514;28;20049;-81
2021/04/23 10:19:12;;;;;;;5.32;3.35;;;22.10;33.30;;;;;;6226501;28;20069;-78
2021/04/23 10:22:13;;;;;;;6.15;3.70;;;22.20;33.20;;;;;;6210233;28;20341;-78
2021/04/23 10:25:15;;;;;;;6.00;3.85;;;22.30;33.20;;;;;;6209853;28;20026;-80
2021/04/23 10:28:20;;;;;;;7.15;3.65;;;22.50;33.20;;;;;;6190907;28;20446;-79
2021/04/23 10:31:21;;;;;;;10.07;4.93;;;22.50;33.20;;;;;;6170723;28;20038;-79
2021/04/23 10:34:22;;;;;;;10.13;5.07;;;22.50;32.80;;;;;;6191993;28;20030;-79
2021/04/23 10:37:23;;;;;;;6.97;4.38;;;22.50;32.50;;;;;;6171222;28;20040;-79
2021/04/23 10:40:24;;;;;;;10.60;6.35;;;22.50;32.70;;;;;;6226866;28;20036;-79
2021/04/23 10:43:26;;;;;;;5.45;2.95;;;22.50;32.10;;;;;;6187288;28;20026;-78
2021/04/23 10:46:28;;;;;;;7.45;3.33;;;22.60;32.20;;;;;;6186027;28;20034;-78
2021/04/23 10:49:57;;;;;;;7.32;3.42;;;22.80;32.00;;;;;;6186368;28;20106;-80
2021/04/23 10:53:13;;;;;;;8.23;3.97;;;23.50;31.10;;;;;;6208486;28;20058;-80
2021/04/23 10:56:29;;;;;;;5.95;3.40;;;24.20;30.00;;;;;;6185719;28;20045;-80
2021/04/23 10:59:35;;;;;;;6.00;3.10;;;24.90;29.60;;;;;;6185973;28;20065;-78
2021/04/23 11:02:36;;;;;;;6.65;2.97;;;25.60;28.70;;;;;;6197113;28;20088;-80
2021/04/23 11:05:40;;;;;;;3.58;2.67;;;26.00;28.10;;;;;;6192684;28;20033;-78
2021/04/23 11:09:11;;;;;;;4.80;3.00;;;26.60;27.90;;;;;;6209175;28;20069;-81
2021/04/23 11:12:15;;;;;;;6.03;2.95;;;27.20;27.50;;;;;;6144850;28;20481;-78
2021/04/23 11:15:17;;;;;;;5.47;2.33;;;27.70;26.70;;;;;;6176749;28;20038;-78
2021/04/23 11:18:27;;;;;;;3.53;2.30;;;28.10;26.40;;;;;;6154291;28;20097;-79
2021/04/23 11:21:31;;;;;;;4.38;2.78;;;28.50;25.80;;;;;;6175515;28;20102;-79
2021/04/23 11:24:33;;;;;;;5.55;2.45;;;28.80;25.40;;;;;;6156477;28;20446;-80
2021/04/23 11:27:34;;;;;;;2.28;2.05;;;29.10;25.00;;;;;;6175880;28;20023;-80
2021/04/23 11:31:01;;;;;;;4.60;2.83;;;29.40;24.90;;;;;;6166330;28;20501;-79
2021/04/23 11:34:05;;;;;;;4.13;2.53;;;29.60;24.30;;;;;;6152167;29;20074;-79
2021/04/23 11:37:22;;;;;;;5.97;2.63;;;29.60;24.10;;;;;;6137131;29;20051;-79
2021/04/23 11:40:29;;;;;;;5.75;2.65;;;29.50;24.10;;;;;;6136994;29;20477;-79
2021/04/23 11:43:37;;;;;;;11.55;2.75;;;29.50;24.20;;;;;;6151647;28;20039;-81
2021/04/23 11:46:54;;;;;;;4.68;2.45;;;29.50;24.30;;;;;;6135850;29;20039;-80
2021/04/23 11:50:08;;;;;;;4.63;2.75;;;29.70;24.10;;;;;;6172951;28;20042;-79
2021/04/23 11:56:56;;;;;;;5.55;3.03;;;29.60;23.40;;;;;;6171762;28;20138;-81
2021/04/23 12:00:34;;;;;;;;;;;;;;;;;;;;;
2021/04/23 12:12:57;;;;;;;;;;;;;;;;;;;;;
2021/04/23 12:30:38;;;;;;;7.15;2.90;;;32.60;21.50;;;;;;5856162;30;20061;-80
2021/04/23 12:43:07;;;;;;;3.42;2.42;;;34.20;20.10;;;;;;5837315;30;20037;-80
2021/04/23 12:46:32;;;;;;;5.30;2.90;;;34.80;19.20;;;;;;5860262;30;20255;-81
2021/04/23 12:51:05;;;;;;;4.13;2.60;;;35.10;18.70;;;;;;5886899;30;20045;-79
2021/04/23 12:54:47;;;;;;;5.80;2.75;;;35.30;18.70;;;;;;5899138;30;20123;-80
2021/04/23 12:58:39;;;;;;;;;;;;;;;;;;;;;
2021/04/23 13:02:18;;;;;;;;;;;;;;;;;;;;;
2021/04/23 13:06:24;;;;;;;;;;;;;;;;;;;;;
2021/04/23 13:09:57;;;;;;;6.03;2.40;;;37.20;17.10;;;;;;5986133;29;20133;-80
2021/04/23 13:13:26;;;;;;;4.25;2.75;;;37.70;16.80;;;;;;5991555;29;20476;-80
2021/04/23 13:30:03;;;;;;;;;;;;;;;;;;;;;
2021/04/23 13:33:52;;;;;;;3.67;2.67;;;39.50;15.80;;;;;;6022385;29;20116;-81
2021/04/23 13:37:35;;;;;;;2.78;2.08;;;39.80;15.70;;;;;;6050435;29;20049;-80
2021/04/23 13:41:12;;;;;;;;;;;;;;;;;;;;;
2021/04/23 13:44:50;;;;;;;9.80;2.40;;;39.90;15.20;;;;;;6084679;29;20044;-80
2021/04/23 13:48:48;;;;;;;;;;;;;;;;;;;;;
2021/04/23 13:52:42;;;;;;;4.70;2.50;;;40.50;15.00;;;;;;6074491;29;20044;-82
2021/04/23 13:56:23;;;;;;;4.37;2.57;;;40.90;14.70;;;;;;6045935;29;20481;-80
2021/04/23 14:00:04;;;;;;;3.95;2.40;;;41.10;14.40;;;;;;6032686;29;20047;-79
2021/04/23 14:03:46;;;;;;;;;;;;;;;;;;;;;
2021/04/23 14:07:34;;;;;;;6.40;2.15;;;40.60;14.50;;;;;;6082351;29;20104;-81
2021/04/23 14:10:49;;;;;;;8.75;2.45;;;40.60;14.50;;;;;;6043066;29;20603;-81
2021/04/23 14:14:15;;;;;;;6.50;2.75;;;40.60;14.30;;;;;;6042153;29;20513;-80
2021/04/23 14:22:35;;;;;;;4.97;2.20;;;40.50;14.40;;;;;;6019516;29;20041;-81
2021/04/23 14:26:16;;;;;;;6.95;2.25;;;39.50;14.90;;;;;;6038013;29;20045;-79
2021/04/23 14:30:12;;;;;;;3.58;2.47;;;37.60;16.00;;;;;;6037247;29;20136;-80
2021/04/23 14:33:33;;;;;;;2.78;2.20;;;35.80;17.00;;;;;;6045762;29;20138;-80
2021/04/23 14:37:13;;;;;;;;;;;;;;;;;;;;;
2021/04/23 14:40:38;;;;;;;4.03;2.35;;;32.70;19.20;;;;;;6082326;29;20060;-79
2021/04/23 14:43:48;;;;;;;3.40;2.33;;;31.40;20.50;;;;;;6066430;29;20131;-80
2021/04/23 14:47:32;;;;;;;;;;;;;;;;;;;;;
2021/04/23 14:50:46;;;;;;;5.32;2.50;;;29.60;21.80;;;;;;6089193;29;20083;-79
2021/04/23 14:53:59;;;;;;;3.92;2.50;;;29.00;22.40;;;;;;6066816;29;20456;-79
2021/04/23 14:57:10;;;;;;;5.45;2.50;;;28.60;23.00;;;;;;6064292;28;20131;-79
2021/04/23 15:00:30;;;;;;;4.30;2.17;;;28.00;23.80;;;;;;6163542;28;20058;-81
2021/04/23 15:03:47;;;;;;;6.40;2.40;;;27.80;23.60;;;;;;6168213;28;20441;-80
2021/04/23 15:07:06;;;;;;;3.50;2.05;;;27.50;24.00;;;;;;6161971;28;20373;-79
2021/04/23 15:10:52;;;;;;;4.03;2.38;;;27.20;24.40;;;;;;6161802;28;20031;-79
2021/04/23 15:14:18;;;;;;;4.72;2.55;;;27.20;24.50;;;;;;6161559;28;20047;-79
2021/04/23 15:17:41;;;;;;;3.28;2.42;;;27.10;24.60;;;;;;6163364;28;20513;-79
2021/04/23 15:24:15;;;;;;;;;;;27.00;24.80;;;;;;6179102;28;20034;-78
2021/04/23 15:28:05;;;;;;;3.85;2.45;;;27.00;24.80;;;;;;6182961;28;19929;-79
2021/04/23 15:31:15;;;;;;;5.75;2.78;;;27.10;25.10;;;;;;6071560;29;20139;-79
2021/04/23 15:34:17;;;;;;;4.03;2.22;;;26.90;25.10;;;;;;6103598;29;20109;-80
2021/04/23 15:37:18;;;;;;;3.33;2.30;;;26.90;25.00;;;;;;6104125;29;20127;-80
2021/04/23 15:40:21;;;;;;;5.80;2.47;;;27.10;25.40;;;;;;6104661;29;20043;-80
2021/04/23 15:43:23;;;;;;;3.78;1.98;;;27.60;24.60;;;;;;6088808;29;20036;-79
2021/04/23 15:46:24;;;;;;;3.33;2.40;;;28.50;23.70;;;;;;6089686;29;20036;-80
2021/04/23 15:49:25;;;;;;;7.57;2.33;;;29.40;23.40;;;;;;6092016;29;20055;-80
2021/04/23 15:52:28;;;;;;;4.00;2.35;;;30.80;21.90;;;;;;6096134;29;20032;-79
2021/04/23 15:55:29;;;;;;;3.40;1.60;;;32.20;20.60;;;;;;6105358;29;20079;-81
2021/04/23 15:58:33;;;;;;;5.28;2.53;;;33.30;19.70;;;;;;6105322;29;20033;-78
2021/04/23 16:01:34;;;;;;;5.43;2.83;;;34.10;18.70;;;;;;6104837;29;20170;-80
2021/04/23 16:04:35;;;;;;;4.65;2.38;;;34.70;18.20;;;;;;6089010;29;20036;-81
2021/04/23 16:07:36;;;;;;;3.25;2.00;;;35.20;18.00;;;;;;6127719;28;20053;-80
2021/04/23 16:10:39;;;;;;;2.92;1.92;;;35.60;17.50;;;;;;6202348;28;20384;-80
2021/04/23 16:13:40;;;;;;;8.02;2.20;;;35.90;17.30;;;;;;6209736;28;20449;-83
2021/04/23 16:16:41;;;;;;;9.13;3.10;;;35.90;17.20;;;;;;6209275;28;20037;-83
2021/04/23 16:19:42;;;;;;;5.68;2.00;;;36.10;17.10;;;;;;6225049;28;20460;-82
2021/04/23 16:22:43;;;;;;;4.03;2.20;;;36.30;17.00;;;;;;6213182;28;20053;-82
2021/04/23 16:25:44;;;;;;;4.53;2.10;;;36.60;16.90;;;;;;6184904;28;20410;-83
2021/04/23 16:28:45;;;;;;;3.13;2.17;;;36.70;16.50;;;;;;6186973;28;20038;-82
2021/04/23 16:31:47;;;;;;;7.22;3.17;;;36.40;16.30;;;;;;6195983;28;20041;-82
2021/04/23 16:34:48;;;;;;;2.67;1.92;;;36.00;16.70;;;;;;6168520;28;20026;-83
2021/04/23 16:37:49;;;;;;;3.78;1.90;;;35.20;17.10;;;;;;6167566;28;20030;-80
2021/04/23 16:40:52;;;;;;;3.60;2.22;;;33.80;18.00;;;;;;6203332;28;20048;-83
2021/04/23 16:43:54;;;;;;;4.18;2.10;;;32.40;18.90;;;;;;6225113;28;20028;-82
2021/04/23 16:46:56;;;;;;;5.63;1.90;;;31.10;19.90;;;;;;6193063;28;20066;-82
2021/04/23 16:50:00;;;;;;;3.47;2.10;;;30.00;20.80;;;;;;6191888;28;20042;-82
2021/04/23 16:53:01;;;;;;;2.90;2.28;;;29.20;21.60;;;;;;6208548;28;20230;-83
2021/04/23 16:56:03;;;;;;;6.78;2.25;;;28.50;22.30;;;;;;6192599;28;20630;-83
2021/04/23 16:59:04;;;;;;;4.70;2.25;;;27.90;22.90;;;;;;6195690;28;20026;-82
2021/04/23 17:02:06;;;;;;;4.30;2.10;;;27.40;23.20;;;;;;6196555;28;20053;-82
2021/04/23 17:05:08;;;;;;;4.30;2.47;;;27.00;23.50;;;;;;6189210;28;20030;-82
2021/04/23 17:08:09;;;;;;;2.40;2.00;;;26.70;24.10;;;;;;6192489;28;20049;-81
2021/04/23 17:11:31;;;;;;;4.85;2.20;;;26.50;24.40;;;;;;6188001;28;20061;-81
2021/04/23 17:14:32;;;;;;;9.35;2.53;;;26.20;24.60;;;;;;6191182;28;20102;-82
2021/04/23 17:17:34;;;;;;;8.95;2.30;;;26.00;24.80;;;;;;6175856;28;20022;-82
2021/04/23 17:21:03;;;;;;;3.83;2.20;;;25.90;25.00;;;;;;6176915;28;20037;-80
2021/04/23 17:24:05;;;;;;;2.20;1.98;;;25.80;25.00;;;;;;6203727;28;20110;-84
2021/04/23 17:27:12;;;;;;;3.30;2.45;;;25.60;25.10;;;;;;6188166;28;20041;-80
2021/04/23 17:30:16;;;;;;;3.53;1.83;;;25.60;25.30;;;;;;6204896;28;20125;-79
2021/04/23 17:33:18;;;;;;;7.30;2.17;;;25.40;25.50;;;;;;6155368;28;20138;-81
2021/04/23 17:36:20;;;;;;;5.50;2.30;;;25.30;25.60;;;;;;6171366;28;20065;-80